createdAt,value
2022-12-04T00:00:33.065Z,72
2022-12-04T00:03:03.768Z,72
2022-12-04T00:05:34.266Z,72
2022-12-04T00:08:04.790Z,72
2022-12-04T00:10:35.342Z,72
2022-12-04T00:13:05.648Z,73
2022-12-04T00:15:37.179Z,73
2022-12-04T00:18:07.402Z,73
2022-12-04T00:20:38.329Z,73
2022-12-04T00:23:09.721Z,72
2022-12-04T00:25:41.449Z,72
2022-12-04T00:28:12.311Z,72
2022-12-04T00:30:43.752Z,72
2022-12-04T00:33:14.727Z,72
2022-12-04T00:35:46.029Z,72
2022-12-04T00:38:17.557Z,72
2022-12-04T00:40:48.663Z,71
2022-12-04T00:43:19.276Z,72
2022-12-04T00:45:50.421Z,72
2022-12-04T00:48:21.430Z,71
2022-12-04T00:50:52.205Z,72
2022-12-04T00:53:22.912Z,72
2022-12-04T00:55:53.678Z,72
2022-12-04T00:58:24.317Z,72
2022-12-04T01:00:55.672Z,72
2022-12-04T01:03:26.446Z,72
2022-12-04T01:05:56.935Z,73
2022-12-04T01:08:27.556Z,73
2022-12-04T01:10:58.570Z,72
2022-12-04T01:13:29.683Z,72
2022-12-04T01:16:00.692Z,72
2022-12-04T01:18:31.434Z,72
2022-12-04T01:21:02.611Z,72
2022-12-04T01:23:33.487Z,72
2022-12-04T01:26:04.401Z,72
2022-12-04T01:28:35.324Z,71
2022-12-04T01:31:06.088Z,71
2022-12-04T01:33:37.384Z,71
2022-12-04T01:36:08.319Z,71
2022-12-04T01:38:38.889Z,71
2022-12-04T01:41:09.737Z,71
2022-12-04T01:43:41.409Z,71
2022-12-04T01:46:12.896Z,72
2022-12-04T01:48:44.008Z,71
2022-12-04T01:51:15.657Z,71
2022-12-04T01:53:46.906Z,71
2022-12-04T01:56:18.000Z,71
2022-12-04T01:58:49.990Z,71
2022-12-04T02:01:20.933Z,71
2022-12-04T02:03:51.799Z,71
2022-12-04T02:06:22.776Z,71
2022-12-04T02:08:53.265Z,71
2022-12-04T02:11:24.150Z,71
2022-12-04T02:13:54.643Z,71
2022-12-04T02:16:25.615Z,71
2022-12-04T02:18:56.422Z,71
2022-12-04T02:21:27.319Z,71
2022-12-04T02:23:59.530Z,71
2022-12-04T02:26:31.675Z,71
2022-12-04T02:29:02.691Z,71
2022-12-04T02:31:32.606Z,71
2022-12-04T02:34:03.852Z,71
2022-12-04T02:36:35.272Z,71
2022-12-04T02:39:06.506Z,71
2022-12-04T02:41:38.054Z,71
2022-12-04T02:44:08.949Z,70
2022-12-04T02:46:39.836Z,70
2022-12-04T02:49:10.752Z,70
2022-12-04T02:51:42.081Z,70
2022-12-04T02:54:14.431Z,70
2022-12-04T02:56:44.906Z,70
2022-12-04T02:59:16.734Z,70
2022-12-04T03:01:47.678Z,70
2022-12-04T03:04:18.345Z,70
2022-12-04T03:06:48.666Z,70
2022-12-04T03:09:19.904Z,71
2022-12-04T03:11:50.700Z,70
2022-12-04T03:14:21.965Z,70
2022-12-04T03:16:53.025Z,70
2022-12-04T03:19:24.098Z,70
2022-12-04T03:21:55.454Z,70
2022-12-04T03:24:26.739Z,70
2022-12-04T03:26:57.526Z,70
2022-12-04T03:29:29.100Z,70
2022-12-04T03:32:00.415Z,70
2022-12-04T03:34:31.398Z,70
2022-12-04T03:37:02.721Z,71
2022-12-04T03:39:34.070Z,71
2022-12-04T03:42:04.766Z,71
2022-12-04T03:44:35.502Z,71
2022-12-04T03:47:07.028Z,71
2022-12-04T03:49:38.456Z,71
2022-12-04T03:52:09.994Z,70
2022-12-04T03:54:41.365Z,70
2022-12-04T03:57:12.379Z,71
2022-12-04T03:59:43.800Z,71
2022-12-04T04:02:14.683Z,71
2022-12-04T04:04:46.214Z,70
2022-12-04T04:07:16.989Z,71
2022-12-04T04:09:47.933Z,71
2022-12-04T04:12:18.593Z,71
2022-12-04T04:14:49.557Z,71
2022-12-04T04:17:20.646Z,71
2022-12-04T04:19:52.541Z,71
2022-12-04T04:22:23.764Z,70
2022-12-04T04:24:54.279Z,70
2022-12-04T04:27:25.012Z,71
2022-12-04T04:29:56.511Z,71
2022-12-04T04:32:27.153Z,70
2022-12-04T04:34:58.419Z,71
2022-12-04T04:37:29.984Z,71
2022-12-04T04:40:01.119Z,71
2022-12-04T04:42:32.225Z,72
2022-12-04T04:45:03.423Z,71
2022-12-04T04:47:34.520Z,72
2022-12-04T04:50:05.197Z,72
2022-12-04T04:52:35.639Z,72
2022-12-04T04:55:06.740Z,72
2022-12-04T04:57:37.832Z,71
2022-12-04T05:00:08.455Z,72
2022-12-04T05:02:39.896Z,72
2022-12-04T05:05:11.030Z,72
2022-12-04T05:07:42.393Z,71
2022-12-04T05:10:13.419Z,72
2022-12-04T05:12:44.358Z,72
2022-12-04T05:15:15.725Z,72
2022-12-04T05:17:47.369Z,72
2022-12-04T05:20:18.418Z,72
2022-12-04T05:22:49.046Z,72
2022-12-04T05:25:20.726Z,72
2022-12-04T05:27:51.512Z,72
2022-12-04T05:30:23.327Z,72
2022-12-04T05:32:53.918Z,72
2022-12-04T05:35:24.811Z,72
2022-12-04T05:37:55.488Z,72
2022-12-04T05:40:26.242Z,72
2022-12-04T05:42:56.904Z,72
2022-12-04T05:45:28.386Z,72
2022-12-04T05:47:59.135Z,72
2022-12-04T05:50:29.659Z,72
2022-12-04T05:53:01.020Z,72
2022-12-04T05:55:31.716Z,72
2022-12-04T05:58:02.492Z,72
2022-12-04T06:00:33.751Z,72
2022-12-04T06:03:04.695Z,72
2022-12-04T06:05:35.185Z,72
2022-12-04T06:08:06.087Z,72
2022-12-04T06:10:37.005Z,72
2022-12-04T06:13:08.403Z,72
2022-12-04T06:15:39.248Z,72
2022-12-04T06:18:10.122Z,71
2022-12-04T06:20:41.252Z,71
2022-12-04T06:23:10.347Z,72
2022-12-04T06:25:41.488Z,71
2022-12-04T06:28:12.362Z,71
2022-12-04T06:30:43.858Z,71
2022-12-04T06:33:14.793Z,71
2022-12-04T06:35:45.476Z,71
2022-12-04T06:38:16.472Z,71
2022-12-04T06:40:48.082Z,71
2022-12-04T06:43:19.001Z,71
2022-12-04T06:45:49.937Z,71
2022-12-04T06:48:21.031Z,71
2022-12-04T06:50:56.005Z,70
2022-12-04T06:53:26.475Z,71
2022-12-04T06:55:57.409Z,70
2022-12-04T06:58:28.810Z,70
2022-12-04T07:00:59.711Z,70
2022-12-04T07:03:30.040Z,70
2022-12-04T07:06:01.034Z,69
2022-12-04T07:08:32.114Z,69
2022-12-04T07:11:02.799Z,69
2022-12-04T07:13:34.101Z,69
2022-12-04T07:16:04.677Z,68
2022-12-04T07:18:35.256Z,68
2022-12-04T07:21:06.598Z,68
2022-12-04T07:23:37.756Z,69
2022-12-04T07:26:08.765Z,68
2022-12-04T07:28:40.435Z,68
2022-12-04T07:31:11.482Z,67
2022-12-04T07:33:43.547Z,67
2022-12-04T07:36:14.180Z,67
2022-12-04T07:38:43.669Z,67
2022-12-04T07:41:14.467Z,67
2022-12-04T07:43:45.007Z,67
2022-12-04T07:46:16.241Z,67
2022-12-04T07:48:47.066Z,67
2022-12-04T07:51:18.147Z,67
2022-12-04T07:53:49.320Z,66
2022-12-04T07:56:20.330Z,68
2022-12-04T07:58:51.283Z,66
2022-12-04T08:01:22.609Z,66
2022-12-04T08:03:54.107Z,66
2022-12-04T08:06:25.609Z,66
2022-12-04T08:08:56.517Z,66
2022-12-04T08:11:27.474Z,65
2022-12-04T08:13:58.712Z,65
2022-12-04T08:16:29.923Z,65
2022-12-04T08:19:00.519Z,65
2022-12-04T08:21:31.673Z,65
2022-12-04T08:24:02.543Z,65
2022-12-04T08:26:34.012Z,65
2022-12-04T08:29:05.196Z,65
2022-12-04T08:31:36.553Z,65
2022-12-04T08:34:07.233Z,65
2022-12-04T08:36:38.073Z,64
2022-12-04T08:39:09.030Z,64
2022-12-04T08:41:40.320Z,64
2022-12-04T08:44:11.350Z,64
2022-12-04T08:46:43.169Z,64
2022-12-04T08:49:14.022Z,64
2022-12-04T08:51:46.017Z,64
2022-12-04T08:54:16.994Z,64
2022-12-04T08:56:48.708Z,65
2022-12-04T08:59:19.703Z,65
2022-12-04T09:01:51.532Z,65
2022-12-04T09:04:22.772Z,64
2022-12-04T09:06:53.578Z,65
2022-12-04T09:09:24.850Z,64
2022-12-04T09:11:55.872Z,64
2022-12-04T09:14:27.152Z,64
2022-12-04T09:16:59.348Z,64
2022-12-04T09:19:30.565Z,64
2022-12-04T09:22:02.952Z,64
2022-12-04T09:24:34.172Z,64
2022-12-04T09:27:08.665Z,64
2022-12-04T09:29:36.361Z,64
2022-12-04T09:32:08.227Z,64
2022-12-04T09:34:51.146Z,63
2022-12-04T09:37:19.027Z,64
2022-12-04T09:39:50.896Z,63
2022-12-04T09:42:21.453Z,63
2022-12-04T09:44:52.357Z,63
2022-12-04T09:47:23.639Z,62
2022-12-04T09:49:55.033Z,62
2022-12-04T09:52:26.854Z,62
2022-12-04T09:54:58.868Z,62
2022-12-04T09:57:29.857Z,62
2022-12-04T10:00:01.092Z,62
2022-12-04T10:02:32.704Z,62
2022-12-04T10:05:02.797Z,62
2022-12-04T10:07:33.935Z,62
2022-12-04T10:10:05.163Z,62
2022-12-04T10:12:36.347Z,62
2022-12-04T10:15:07.519Z,62
2022-12-04T10:17:37.466Z,62
2022-12-04T10:20:09.062Z,61
2022-12-04T10:22:40.302Z,62
2022-12-04T10:25:12.112Z,61
2022-12-04T10:27:44.068Z,61
2022-12-04T10:30:15.160Z,61
2022-12-04T10:32:46.961Z,61
2022-12-04T10:35:18.315Z,61
2022-12-04T10:37:49.858Z,60
2022-12-04T10:40:21.714Z,61
2022-12-04T10:42:52.956Z,61
2022-12-04T10:45:24.318Z,61
2022-12-04T10:47:56.326Z,60
2022-12-04T10:50:27.749Z,60
2022-12-04T10:52:59.184Z,61
2022-12-04T10:55:30.724Z,60
2022-12-04T10:58:01.492Z,61
2022-12-04T11:00:32.664Z,60
2022-12-04T11:03:05.791Z,60
2022-12-04T11:05:36.984Z,60
2022-12-04T11:08:08.423Z,60
2022-12-04T11:10:39.510Z,60
2022-12-04T11:13:11.077Z,60
2022-12-04T11:15:42.391Z,60
2022-12-04T11:18:14.125Z,60
2022-12-04T11:20:46.943Z,60
2022-12-04T11:23:17.650Z,60
2022-12-04T11:25:48.866Z,60
2022-12-04T11:28:40.399Z,60
2022-12-04T11:30:51.747Z,60
2022-12-04T11:33:22.869Z,60
2022-12-04T11:35:54.079Z,61
2022-12-04T11:38:25.111Z,60
2022-12-04T11:40:56.146Z,60
2022-12-04T11:43:27.397Z,60
2022-12-04T11:45:58.887Z,60
2022-12-04T11:48:29.725Z,60
2022-12-04T11:51:00.985Z,59
2022-12-04T11:53:32.321Z,60
2022-12-04T11:56:03.677Z,60
2022-12-04T11:58:34.863Z,60
2022-12-04T12:01:06.326Z,61
2022-12-04T12:03:38.007Z,60
2022-12-04T12:06:10.191Z,59
2022-12-04T12:08:42.029Z,60
2022-12-04T12:11:14.461Z,60
2022-12-04T12:13:46.629Z,59
2022-12-04T12:16:17.436Z,60
2022-12-04T12:18:48.614Z,60
2022-12-04T12:21:19.997Z,61
2022-12-04T12:23:51.136Z,60
2022-12-04T12:26:22.935Z,60
2022-12-04T12:28:55.084Z,60
2022-12-04T12:31:26.552Z,60
2022-12-04T12:33:58.991Z,60
2022-12-04T12:36:30.281Z,60
2022-12-04T12:39:02.292Z,60
2022-12-04T12:41:34.473Z,61
2022-12-04T12:44:05.260Z,61
2022-12-04T12:46:36.067Z,61
2022-12-04T12:49:07.518Z,61
2022-12-04T12:51:38.652Z,61
2022-12-04T12:54:10.268Z,61
2022-12-04T12:56:46.278Z,62
2022-12-04T12:59:13.749Z,63
2022-12-04T13:01:45.118Z,61
2022-12-04T13:04:16.098Z,61
2022-12-04T13:06:47.736Z,62
2022-12-04T13:09:19.316Z,62
2022-12-04T13:11:56.232Z,62
2022-12-04T13:14:27.881Z,61
2022-12-04T13:16:59.040Z,61
2022-12-04T13:19:30.372Z,60
2022-12-04T13:22:02.367Z,61
2022-12-04T13:24:35.037Z,61
2022-12-04T13:27:05.765Z,61
2022-12-04T13:29:36.956Z,60
2022-12-04T13:32:07.890Z,60
2022-12-04T13:34:39.849Z,60
2022-12-04T13:37:09.164Z,61
2022-12-04T13:39:40.987Z,61
2022-12-04T13:42:11.992Z,60
2022-12-04T13:44:43.906Z,60
2022-12-04T13:47:15.219Z,61
2022-12-04T13:49:45.013Z,61
2022-12-04T13:52:16.454Z,61
2022-12-04T13:54:47.246Z,61
2022-12-04T13:57:19.309Z,61
2022-12-04T13:59:50.902Z,61
2022-12-04T14:02:23.092Z,61
2022-12-04T14:04:54.374Z,61
2022-12-04T14:07:24.867Z,61
2022-12-04T14:09:55.797Z,61
2022-12-04T14:12:26.927Z,62
2022-12-04T14:14:58.984Z,62
2022-12-04T14:17:30.352Z,62
2022-12-04T14:20:06.007Z,62
2022-12-04T14:22:33.037Z,62
2022-12-04T14:25:04.319Z,62
2022-12-04T14:27:35.386Z,62
2022-12-04T14:30:06.469Z,62
2022-12-04T14:32:38.146Z,62
2022-12-04T14:35:09.346Z,62
2022-12-04T14:37:40.751Z,62
2022-12-04T14:40:13.596Z,62
2022-12-04T14:42:44.735Z,62
2022-12-04T14:45:16.299Z,62
2022-12-04T14:47:47.863Z,63
2022-12-04T14:50:18.841Z,63
2022-12-04T14:52:49.749Z,62
2022-12-04T14:55:21.426Z,62
2022-12-04T14:57:52.863Z,62
2022-12-04T15:00:24.247Z,62
2022-12-04T15:02:55.269Z,63
2022-12-04T15:05:25.180Z,63
2022-12-04T15:07:56.518Z,63
2022-12-04T15:10:28.646Z,63
2022-12-04T15:13:00.323Z,63
2022-12-04T15:15:32.473Z,63
2022-12-04T15:18:04.113Z,63
2022-12-04T15:20:38.965Z,63
2022-12-04T15:23:07.404Z,63
2022-12-04T15:25:39.258Z,63
2022-12-04T15:28:10.337Z,63
2022-12-04T15:30:41.446Z,64
2022-12-04T15:33:16.427Z,64
2022-12-04T15:35:43.553Z,63
2022-12-04T15:38:15.422Z,63
2022-12-04T15:40:46.861Z,64
2022-12-04T15:43:17.785Z,64
2022-12-04T15:45:48.946Z,64
2022-12-04T15:48:20.716Z,64
2022-12-04T15:50:53.027Z,64
2022-12-04T15:53:22.769Z,65
2022-12-04T15:55:54.589Z,65
2022-12-04T15:58:26.019Z,65
2022-12-04T16:00:57.427Z,64
2022-12-04T16:03:29.478Z,65
2022-12-04T16:06:01.026Z,65
2022-12-04T16:08:32.054Z,65
2022-12-04T16:11:02.716Z,65
2022-12-04T16:13:33.821Z,65
2022-12-04T16:16:05.053Z,65
2022-12-04T16:18:36.376Z,65
2022-12-04T16:21:07.540Z,64
2022-12-04T16:23:38.964Z,65
2022-12-04T16:26:10.809Z,65
2022-12-04T16:28:42.071Z,64
2022-12-04T16:31:13.426Z,65
2022-12-04T16:33:44.303Z,65
2022-12-04T16:36:16.103Z,65
2022-12-04T16:38:46.816Z,65
2022-12-04T16:41:17.810Z,65
2022-12-04T16:43:49.272Z,65
2022-12-04T16:46:20.450Z,65
2022-12-04T16:48:51.731Z,65
2022-12-04T16:51:23.596Z,66
2022-12-04T16:53:54.274Z,66
2022-12-04T16:56:25.569Z,66
2022-12-04T16:58:56.396Z,66
2022-12-04T17:01:27.558Z,66
2022-12-04T17:03:59.176Z,66
2022-12-04T17:06:29.889Z,66
2022-12-04T17:09:00.584Z,67
2022-12-04T17:11:32.118Z,67
2022-12-04T17:14:01.473Z,67
2022-12-04T17:16:30.844Z,67
2022-12-04T17:19:01.762Z,67
2022-12-04T17:21:32.751Z,67
2022-12-04T17:24:03.524Z,67
2022-12-04T17:26:34.497Z,67
2022-12-04T17:29:05.435Z,67
2022-12-04T17:31:36.942Z,67
2022-12-04T17:34:07.593Z,67
2022-12-04T17:36:38.360Z,67
2022-12-04T17:39:09.281Z,68
2022-12-04T17:41:40.368Z,68
2022-12-04T17:44:10.320Z,68
2022-12-04T17:46:46.018Z,68
2022-12-04T17:49:16.964Z,69
2022-12-04T17:51:48.160Z,69
2022-12-04T17:54:19.196Z,68
2022-12-04T17:56:54.752Z,68
2022-12-04T17:59:21.886Z,68
2022-12-04T18:01:52.981Z,68
2022-12-04T18:04:23.757Z,69
2022-12-04T18:06:54.992Z,69
2022-12-04T18:09:26.185Z,69
2022-12-04T18:11:57.112Z,69
2022-12-04T18:14:28.269Z,69
2022-12-04T18:16:59.895Z,69
2022-12-04T18:19:31.182Z,69
2022-12-04T18:22:02.194Z,69
2022-12-04T18:24:33.010Z,69
2022-12-04T18:27:04.270Z,69
2022-12-04T18:29:35.168Z,70
2022-12-04T18:32:06.503Z,70
2022-12-04T18:34:37.642Z,70
2022-12-04T18:37:07.625Z,70
2022-12-04T18:39:38.257Z,70
2022-12-04T18:42:09.417Z,70
2022-12-04T18:44:40.515Z,71
2022-12-04T18:47:15.886Z,71
2022-12-04T18:49:46.850Z,70
2022-12-04T18:52:18.089Z,71
2022-12-04T18:54:49.528Z,70
2022-12-04T18:57:20.976Z,70
2022-12-04T18:59:52.057Z,70
2022-12-04T19:02:23.658Z,70
2022-12-04T19:04:54.278Z,70
2022-12-04T19:07:28.566Z,70
2022-12-04T19:10:10.678Z,70
2022-12-04T19:12:30.707Z,71
2022-12-04T19:15:02.317Z,71
2022-12-04T19:17:33.715Z,70
2022-12-04T19:20:04.809Z,71
2022-12-04T19:22:35.962Z,71
2022-12-04T19:25:07.255Z,71
2022-12-04T19:27:37.927Z,71
2022-12-04T19:30:08.938Z,71
2022-12-04T19:32:40.244Z,72
2022-12-04T19:35:11.678Z,72
2022-12-04T19:37:46.942Z,71
2022-12-04T19:40:14.620Z,72
2022-12-04T19:42:46.263Z,72
2022-12-04T19:45:17.500Z,72
2022-12-04T19:47:48.859Z,72
2022-12-04T19:50:20.263Z,72
2022-12-04T19:52:51.315Z,72
2022-12-04T19:55:22.582Z,72
2022-12-04T19:57:54.266Z,72
2022-12-04T20:00:25.299Z,72
2022-12-04T20:02:56.548Z,72
2022-12-04T20:05:32.608Z,72
2022-12-04T20:10:36.702Z,71
2022-12-04T20:13:07.708Z,71
2022-12-04T20:15:38.748Z,72
2022-12-04T20:18:09.797Z,71
2022-12-04T20:20:41.103Z,72
2022-12-04T20:23:12.255Z,72
2022-12-04T20:25:48.221Z,71
2022-12-04T20:28:18.123Z,71
2022-12-04T20:30:49.414Z,71
2022-12-04T20:33:20.505Z,71
2022-12-04T20:35:52.446Z,71
2022-12-04T20:38:23.892Z,70
2022-12-04T20:40:55.147Z,70
2022-12-04T20:43:26.321Z,70
2022-12-04T20:45:57.746Z,70
2022-12-04T20:48:32.011Z,70
2022-12-04T20:51:03.561Z,70
2022-12-04T20:53:34.911Z,70
2022-12-04T20:56:06.317Z,70
2022-12-04T20:58:37.345Z,70
2022-12-04T21:01:08.670Z,69
2022-12-04T21:03:39.980Z,69
2022-12-04T21:06:10.901Z,69
2022-12-04T21:08:42.389Z,68
2022-12-04T21:11:14.047Z,68
2022-12-04T21:13:45.351Z,68
2022-12-04T21:16:16.831Z,68
2022-12-04T21:18:48.307Z,68
2022-12-04T21:21:19.798Z,69
2022-12-04T21:23:50.697Z,69
2022-12-04T21:26:22.271Z,69
2022-12-04T21:28:53.375Z,69
2022-12-04T21:31:24.739Z,69
2022-12-04T21:33:56.101Z,69
2022-12-04T21:36:27.243Z,70
2022-12-04T21:38:58.647Z,70
2022-12-04T21:41:29.894Z,71
2022-12-04T21:44:00.983Z,72
2022-12-04T21:46:32.441Z,71
2022-12-04T21:49:03.261Z,72
2022-12-04T21:54:05.897Z,73
2022-12-04T21:56:37.243Z,73
2022-12-04T21:59:09.972Z,72
2022-12-04T22:01:41.371Z,72
2022-12-04T22:04:14.356Z,72
2022-12-04T22:06:46.243Z,72
2022-12-04T22:09:18.168Z,71
2022-12-04T22:11:49.578Z,73
2022-12-04T22:14:20.571Z,71
2022-12-04T22:16:50.699Z,72
2022-12-04T22:19:22.233Z,72
2022-12-04T22:21:53.344Z,72
2022-12-04T22:24:24.264Z,72
2022-12-04T22:26:55.482Z,71
2022-12-04T22:29:48.976Z,71
2022-12-04T22:31:58.897Z,70
2022-12-04T22:34:29.879Z,70
2022-12-04T22:37:01.128Z,70
2022-12-04T22:39:32.408Z,71
2022-12-04T22:42:03.573Z,71
2022-12-04T22:44:34.518Z,70
2022-12-04T22:47:05.924Z,70
2022-12-04T22:49:37.240Z,70
2022-12-04T22:52:08.220Z,70
2022-12-04T22:54:39.209Z,71
2022-12-04T22:57:10.451Z,71
2022-12-04T22:59:42.070Z,71
2022-12-04T23:02:13.960Z,71
2022-12-04T23:04:45.251Z,71
2022-12-04T23:07:15.729Z,71
2022-12-04T23:09:46.646Z,71
2022-12-04T23:12:17.015Z,71
2022-12-04T23:14:47.950Z,71
2022-12-04T23:17:18.881Z,71
2022-12-04T23:19:49.022Z,70
2022-12-04T23:22:19.515Z,70
2022-12-04T23:24:50.015Z,70
2022-12-04T23:27:20.332Z,70
2022-12-04T23:30:04.591Z,70
2022-12-04T23:32:21.337Z,70
2022-12-04T23:34:51.966Z,70
2022-12-04T23:37:22.735Z,70
2022-12-04T23:39:53.404Z,70
2022-12-04T23:42:24.281Z,70
2022-12-04T23:44:54.288Z,70
2022-12-04T23:47:25.347Z,70
2022-12-04T23:49:56.223Z,70
2022-12-04T23:52:26.384Z,70
2022-12-04T23:54:57.073Z,70
2022-12-04T23:57:28.599Z,70
2022-12-04T23:59:59.419Z,70
